Duncan Falls, Ohio
Current Conditions -  °F | °C
As of 12:53 AM on Wednesday 22 Oct 2014 (Local Time) from KZZV Reporting Station
Overcast Overcast  
Wind Chill: 40°   Ceiling: 1100
Heat Index: 45°   Visibility: 10mi
Dew Point: 41°   Wind: 9mph
Humidity: 86%   Direction: 310°NW
Pressure: 30.1"   Gusts: NA
Location:  39.87°N, 81.91°W
Report Text: KZZV 220453Z AUTO 31008KT 10SM OVC011 07/05 A3010 RMK AO2 SLP195 T00720050 401110067
Loading
Personal Weather Stations






























Interactive Weather Map
Tropical Storm Tracking
New forecast layout! Learn more

10-Day Weather Forecast

Advertisements
Track Severe Weather on mobile